TimeCDT,TemperatureF,Dew PointF,Humidity,Sea Level PressureIn,VisibilityMPH,Wind Direction,Wind SpeedMPH,Gust SpeedMPH,PrecipitationIn,Events,Conditions,WindDirDegrees,DateUTC
12:53 AM,70.0,64.9,84,30.01,10.0,SSW,5.8,-,N/A,,Clear,200,2013-06-18 05:53:00
1:53 AM,70.0,64.0,81,29.99,10.0,Calm,Calm,-,N/A,,Clear,0,2013-06-18 06:53:00
2:53 AM,68.0,63.0,84,29.99,10.0,Calm,Calm,-,N/A,,Clear,0,2013-06-18 07:53:00
3:53 AM,68.0,63.0,84,29.99,10.0,Calm,Calm,-,N/A,,Clear,0,2013-06-18 08:53:00
4:53 AM,66.9,62.1,84,29.99,10.0,Calm,Calm,-,N/A,,Clear,0,2013-06-18 09:53:00
5:53 AM,63.0,60.1,90,30.00,10.0,SSE,4.6,-,N/A,,Clear,160,2013-06-18 10:53:00
6:53 AM,64.9,62.1,90,30.01,10.0,Calm,Calm,-,N/A,,Clear,0,2013-06-18 11:53:00
7:53 AM,71.1,64.9,81,30.01,10.0,Calm,Calm,-,N/A,,Clear,0,2013-06-18 12:53:00
8:53 AM,75.0,66.0,73,30.02,10.0,Calm,Calm,-,N/A,,Clear,0,2013-06-18 13:53:00
9:53 AM,80.1,66.9,64,30.03,10.0,WNW,10.4,-,N/A,,Clear,300,2013-06-18 14:53:00
10:53 AM,82.9,64.9,54,30.01,10.0,Calm,Calm,-,N/A,,Clear,0,2013-06-18 15:53:00
11:53 AM,84.9,64.0,49,30.00,10.0,Variable,3.5,-,N/A,,Clear,0,2013-06-18 16:53:00
12:53 PM,87.1,62.1,43,29.99,10.0,SSW,5.8,-,N/A,,Partly Cloudy,210,2013-06-18 17:53:00
1:53 PM,88.0,57.9,36,29.98,10.0,Variable,4.6,-,N/A,,Partly Cloudy,0,2013-06-18 18:53:00
2:53 PM,90.0,57.9,34,29.96,10.0,Variable,5.8,-,N/A,,Partly Cloudy,0,2013-06-18 19:53:00
3:53 PM,89.1,54.0,30,29.93,10.0,SSE,9.2,-,N/A,,Clear,150,2013-06-18 20:53:00
4:53 PM,90.0,59.0,35,29.91,10.0,SE,8.1,-,N/A,,Mostly Cloudy,130,2013-06-18 21:53:00
5:53 PM,87.1,59.0,39,29.91,10.0,SSE,5.8,-,N/A,,Partly Cloudy,160,2013-06-18 22:53:00
6:53 PM,86.0,59.0,40,29.92,10.0,SSW,5.8,-,N/A,,Mostly Cloudy,210,2013-06-18 23:53:00
7:23 PM,75.2,60.8,61,29.98,10.0,North,17.3,28.8,N/A,,Overcast,360,2013-06-19 00:23:00
7:53 PM,73.0,62.1,68,29.96,10.0,ENE,13.8,23.0,N/A,,Overcast,70,2013-06-19 00:53:00
8:53 PM,77.0,60.1,56,29.94,10.0,ESE,15.0,-,0.00,,Clear,110,2013-06-19 01:53:00
9:53 PM,75.0,63.0,66,29.94,10.0,East,11.5,-,N/A,,Clear,100,2013-06-19 02:53:00
10:53 PM,73.0,63.0,71,29.95,10.0,SE,9.2,-,N/A,,Clear,140,2013-06-19 03:53:00
11:53 PM,71.1,63.0,75,29.95,10.0,SSE,9.2,-,N/A,,Clear,160,2013-06-19 04:53:00